createdAt,value
2023-05-01T00:01:07.226Z,4.20
2023-05-01T00:03:35.339Z,4.60
2023-05-01T00:06:04.828Z,3.70
2023-05-01T00:08:32.869Z,3.10
2023-05-01T00:11:03.658Z,3.80
2023-05-01T00:13:32.851Z,3.97
2023-05-01T00:16:00.644Z,4.03
2023-05-01T00:18:28.382Z,4.30
2023-05-01T00:20:56.095Z,4.00
2023-05-01T00:23:23.851Z,4.57
2023-05-01T00:25:51.630Z,4.20
2023-05-01T00:28:19.456Z,4.43
2023-05-01T00:30:48.602Z,4.43
2023-05-01T00:33:16.295Z,4.17
2023-05-01T00:35:45.011Z,3.60
2023-05-01T00:38:12.778Z,4.17
2023-05-01T00:40:43.998Z,3.83
2023-05-01T00:43:12.296Z,3.93
2023-05-01T00:45:40.178Z,4.10
2023-05-01T00:48:10.889Z,4.40
2023-05-01T00:50:38.757Z,4.23
2023-05-01T00:53:06.519Z,4.17
2023-05-01T00:55:35.837Z,3.90
2023-05-01T00:58:04.054Z,4.40
2023-05-01T01:00:31.760Z,4.47
2023-05-01T01:02:59.701Z,4.20
2023-05-01T01:05:32.708Z,3.90
2023-05-01T01:08:05.130Z,3.60
2023-05-01T01:10:37.638Z,3.90
2023-05-01T01:13:09.025Z,3.60
2023-05-01T01:15:37.820Z,3.60
2023-05-01T01:18:09.462Z,3.73
2023-05-01T01:20:42.492Z,3.67
2023-05-01T01:23:24.607Z,4.17
2023-05-01T01:26:04.351Z,3.63
2023-05-01T01:28:41.868Z,3.90
2023-05-01T01:31:18.843Z,3.70
2023-05-01T01:33:51.676Z,3.60
2023-05-01T01:36:21.488Z,4.07
2023-05-01T01:38:55.433Z,4.17
2023-05-01T01:41:27.746Z,3.83
2023-05-01T01:43:59.555Z,3.77
2023-05-01T01:46:28.061Z,3.70
2023-05-01T01:48:57.450Z,3.87
2023-05-01T01:51:26.950Z,3.90
2023-05-01T01:53:55.537Z,3.70
2023-05-01T01:56:25.543Z,3.90
2023-05-01T01:58:54.020Z,3.80
2023-05-01T02:01:22.251Z,4.20
2023-05-01T02:03:50.472Z,3.97
2023-05-01T02:06:20.453Z,3.70
2023-05-01T02:08:49.359Z,4.13
2023-05-01T02:11:20.026Z,3.83
2023-05-01T02:13:48.850Z,4.20
2023-05-01T02:16:17.359Z,3.70
2023-05-01T02:18:47.242Z,3.97
2023-05-01T02:21:16.139Z,3.70
2023-05-01T02:23:45.274Z,3.50
2023-05-01T02:26:14.755Z,4.20
2023-05-01T02:28:42.512Z,3.83
2023-05-01T02:31:10.500Z,4.30
2023-05-01T02:33:38.210Z,3.87
2023-05-01T02:36:06.426Z,3.90
2023-05-01T02:38:34.244Z,3.80
2023-05-01T02:41:04.270Z,4.10
2023-05-01T02:43:33.470Z,4.40
2023-05-01T02:46:02.691Z,3.50
2023-05-01T02:48:32.510Z,3.80
2023-05-01T02:51:01.697Z,4.20
2023-05-01T02:53:29.528Z,3.97
2023-05-01T02:55:57.371Z,4.23
2023-05-01T02:58:26.773Z,3.93
2023-05-01T03:00:54.548Z,3.70
2023-05-01T03:03:22.303Z,4.10
2023-05-01T03:05:50.018Z,3.60
2023-05-01T03:08:17.847Z,4.40
2023-05-01T03:10:45.523Z,3.83
2023-05-01T03:13:13.337Z,3.30
2023-05-01T03:15:42.854Z,3.80
2023-05-01T03:18:10.585Z,4.17
2023-05-01T03:20:38.325Z,3.87
2023-05-01T03:23:06.507Z,4.17
2023-05-01T03:25:34.350Z,4.60
2023-05-01T03:28:02.048Z,4.83
2023-05-01T03:30:29.762Z,4.60
2023-05-01T03:32:58.860Z,4.27
2023-05-01T03:35:26.578Z,4.27
2023-05-01T03:37:54.261Z,4.47
2023-05-01T03:40:21.951Z,4.10
2023-05-01T03:42:49.681Z,3.40
2023-05-01T03:45:17.430Z,3.50
2023-05-01T03:47:45.177Z,3.50
2023-05-01T03:50:14.669Z,4.17
2023-05-01T03:52:42.613Z,3.53
2023-05-01T03:55:10.400Z,3.67
2023-05-01T03:57:38.215Z,3.40
2023-05-01T04:00:07.327Z,3.40
2023-05-01T04:02:35.098Z,3.70
2023-05-01T04:05:03.071Z,3.50
2023-05-01T04:07:32.226Z,3.57
2023-05-01T04:09:59.935Z,3.67
2023-05-01T04:12:27.623Z,3.70
2023-05-01T04:14:55.358Z,3.93
2023-05-01T04:17:23.223Z,3.47
2023-05-01T04:19:50.987Z,3.33
2023-05-01T04:22:18.660Z,3.40
2023-05-01T04:24:47.761Z,3.60
2023-05-01T04:27:15.478Z,3.60
2023-05-01T04:29:43.200Z,3.30
2023-05-01T04:32:10.928Z,3.60
2023-05-01T04:34:38.928Z,3.10
2023-05-01T04:37:08.878Z,3.50
2023-05-01T04:39:36.780Z,3.60
2023-05-01T04:42:06.165Z,3.30
2023-05-01T04:44:36.184Z,3.53
2023-05-01T04:47:04.213Z,3.40
2023-05-01T04:49:32.246Z,3.80
2023-05-01T04:52:00.000Z,3.63
2023-05-01T04:54:28.015Z,3.80
2023-05-01T04:56:55.699Z,3.87
2023-05-01T04:59:24.798Z,4.13
2023-05-01T05:01:52.559Z,3.70
2023-05-01T05:04:20.376Z,3.00
2023-05-01T05:06:48.503Z,3.40
2023-05-01T05:09:18.029Z,3.20
2023-05-01T05:11:47.750Z,3.00
2023-05-01T05:14:15.459Z,3.17
2023-05-01T05:16:44.716Z,2.90
2023-05-01T05:19:12.540Z,3.20
2023-05-01T05:21:40.229Z,3.00
2023-05-01T05:24:07.936Z,2.73
2023-05-01T05:26:35.682Z,2.80
2023-05-01T05:29:03.464Z,2.83
2023-05-01T05:31:31.241Z,3.00
2023-05-01T05:34:00.455Z,2.70
2023-05-01T05:36:28.812Z,2.93
2023-05-01T05:38:56.541Z,3.00
2023-05-01T05:41:24.232Z,2.87
2023-05-01T05:43:54.174Z,2.80
2023-05-01T05:46:22.043Z,2.77
2023-05-01T05:48:49.903Z,3.03
2023-05-01T05:51:19.528Z,3.00
2023-05-01T05:53:47.293Z,2.73
2023-05-01T05:56:15.059Z,2.70
2023-05-01T05:58:42.779Z,2.63
2023-05-01T06:01:11.746Z,2.90
2023-05-01T06:03:39.732Z,2.90
2023-05-01T06:06:07.785Z,2.90
2023-05-01T06:08:37.829Z,3.00
2023-05-01T06:11:05.774Z,3.00
2023-05-01T06:13:33.654Z,2.80
2023-05-01T06:16:01.814Z,2.70
2023-05-01T06:18:30.240Z,2.90
2023-05-01T06:20:58.401Z,2.80
2023-05-01T06:23:26.130Z,2.70
2023-05-01T06:25:57.273Z,3.20
2023-05-01T06:28:24.976Z,2.63
2023-05-01T06:30:52.804Z,2.70
2023-05-01T06:33:20.563Z,3.03
2023-05-01T06:35:48.314Z,3.20
2023-05-01T06:38:16.354Z,3.00
2023-05-01T06:40:47.039Z,2.60
2023-05-01T06:43:16.573Z,2.70
2023-05-01T06:45:44.310Z,3.13
2023-05-01T06:48:12.070Z,2.43
2023-05-01T06:50:39.880Z,3.20
2023-05-01T06:53:07.593Z,3.20
2023-05-01T06:55:35.920Z,2.90
2023-05-01T06:58:12.664Z,2.80
2023-05-01T07:00:46.803Z,2.80
2023-05-01T07:03:14.561Z,2.77
2023-05-01T07:05:42.297Z,2.97
2023-05-01T07:08:10.507Z,3.23
2023-05-01T07:10:39.871Z,3.20
2023-05-01T07:13:09.228Z,3.20
2023-05-01T07:15:37.227Z,3.00
2023-05-01T07:18:06.861Z,3.30
2023-05-01T07:20:35.336Z,3.40
2023-05-01T07:23:05.261Z,3.43
2023-05-01T07:25:34.386Z,3.50
2023-05-01T07:28:04.670Z,3.60
2023-05-01T07:30:33.467Z,3.60
2023-05-01T07:33:01.776Z,3.47
2023-05-01T07:35:31.054Z,3.50
2023-05-01T07:37:58.771Z,3.50
2023-05-01T07:40:26.456Z,3.33
2023-05-01T07:42:54.648Z,3.27
2023-05-01T07:45:22.607Z,3.40
2023-05-01T07:47:50.360Z,3.10
2023-05-01T07:50:18.231Z,3.27
2023-05-01T07:52:47.394Z,3.10
2023-05-01T07:55:15.115Z,3.07
2023-05-01T07:57:42.853Z,3.60
2023-05-01T08:00:13.180Z,3.47
2023-05-01T08:02:41.286Z,3.20
2023-05-01T08:05:09.672Z,3.40
2023-05-01T08:07:37.410Z,3.20
2023-05-01T08:10:07.257Z,3.17
2023-05-01T08:12:34.973Z,3.77
2023-05-01T08:15:02.877Z,3.80
2023-05-01T08:17:31.018Z,3.53
2023-05-01T08:19:59.066Z,3.80
2023-05-01T08:22:27.919Z,4.07
2023-05-01T08:24:55.592Z,3.77
2023-05-01T08:27:24.832Z,3.60
2023-05-01T08:29:52.547Z,3.83
2023-05-01T08:32:20.393Z,4.20
2023-05-01T08:34:48.093Z,4.10
2023-05-01T08:37:15.776Z,3.83
2023-05-01T08:39:43.505Z,4.30
2023-05-01T08:42:11.537Z,4.20
2023-05-01T08:44:41.076Z,4.27
2023-05-01T08:47:12.653Z,4.47
2023-05-01T08:49:41.732Z,4.77
2023-05-01T08:52:10.158Z,4.20
2023-05-01T08:54:39.154Z,4.50
2023-05-01T08:57:09.716Z,4.40
2023-05-01T08:59:41.553Z,4.43
2023-05-01T09:02:10.430Z,4.27
2023-05-01T09:04:39.926Z,4.60
2023-05-01T09:07:07.686Z,4.40
2023-05-01T09:09:35.732Z,5.17
2023-05-01T09:12:10.057Z,4.33
2023-05-01T09:14:37.807Z,4.87
2023-05-01T09:17:06.944Z,5.17
2023-05-01T09:19:34.715Z,5.33
2023-05-01T09:22:02.426Z,5.20
2023-05-01T09:24:30.172Z,5.50
2023-05-01T09:26:59.567Z,5.57
2023-05-01T09:29:48.298Z,5.47
2023-05-01T09:32:19.312Z,5.40
2023-05-01T09:34:47.990Z,5.30
2023-05-01T09:37:27.239Z,5.40
2023-05-01T09:40:02.639Z,5.63
2023-05-01T09:42:31.241Z,5.43
2023-05-01T09:44:58.955Z,5.10
2023-05-01T09:47:29.212Z,5.07
2023-05-01T09:49:57.965Z,5.00
2023-05-01T09:52:27.760Z,5.30
2023-05-01T09:55:10.328Z,5.70
2023-05-01T09:57:38.880Z,5.50
2023-05-01T10:00:10.130Z,6.10
2023-05-01T10:02:39.406Z,6.30
2023-05-01T10:05:08.440Z,6.07
2023-05-01T10:07:36.203Z,6.17
2023-05-01T10:10:19.751Z,6.00
2023-05-01T10:12:47.510Z,5.97
2023-05-01T10:15:24.671Z,6.50
2023-05-01T10:17:55.595Z,6.20
2023-05-01T10:20:23.526Z,5.70
2023-05-01T10:22:51.275Z,5.63
2023-05-01T10:25:19.272Z,6.03
2023-05-01T10:27:47.346Z,5.70
2023-05-01T10:30:15.875Z,5.80
2023-05-01T10:32:43.877Z,6.00
2023-05-01T10:35:15.331Z,6.03
2023-05-01T10:37:47.697Z,6.40
2023-05-01T10:40:42.199Z,6.50
2023-05-01T10:43:14.475Z,6.20
2023-05-01T10:45:42.201Z,6.10
2023-05-01T10:48:10.013Z,5.90
2023-05-01T10:50:59.207Z,5.43
2023-05-01T10:53:26.935Z,5.60
2023-05-01T10:55:55.401Z,5.90
2023-05-01T10:58:41.568Z,5.47
2023-05-01T11:01:24.199Z,5.27
2023-05-01T11:03:52.229Z,5.20
2023-05-01T11:06:21.570Z,5.40
2023-05-01T11:08:49.379Z,5.50
2023-05-01T11:11:36.226Z,5.50
2023-05-01T11:14:04.364Z,5.23
2023-05-01T11:16:42.096Z,6.37
2023-05-01T11:19:11.110Z,5.00
2023-05-01T11:21:42.014Z,5.87
2023-05-01T11:24:10.568Z,5.63
2023-05-01T11:26:39.265Z,6.07
2023-05-01T11:29:07.499Z,6.00
2023-05-01T11:31:35.428Z,6.03
2023-05-01T11:34:03.458Z,6.37
2023-05-01T11:36:47.735Z,5.90
2023-05-01T11:39:17.264Z,5.50
2023-05-01T11:41:45.104Z,5.40
2023-05-01T11:44:13.249Z,5.37
2023-05-01T11:46:40.964Z,5.70
2023-05-01T11:49:09.437Z,5.80
2023-05-01T11:51:37.135Z,6.47
2023-05-01T11:54:05.333Z,6.17
2023-05-01T11:56:35.022Z,5.80
2023-05-01T11:59:10.679Z,5.77
2023-05-01T12:01:39.116Z,6.00
2023-05-01T12:04:07.935Z,5.63
2023-05-01T12:06:40.791Z,5.30
2023-05-01T12:09:09.172Z,5.60
2023-05-01T12:11:39.151Z,5.43
2023-05-01T12:14:07.143Z,4.70
2023-05-01T12:16:35.655Z,5.60
2023-05-01T12:19:04.153Z,5.03
2023-05-01T12:21:32.002Z,5.00
2023-05-01T12:24:08.541Z,4.80
2023-05-01T12:26:36.260Z,5.33
2023-05-01T12:29:05.880Z,5.37
2023-05-01T12:31:34.041Z,4.90
2023-05-01T12:34:02.664Z,4.10
2023-05-01T12:36:31.796Z,4.80
2023-05-01T12:39:00.730Z,5.90
2023-05-01T12:41:38.258Z,4.73
2023-05-01T12:44:20.873Z,4.87
2023-05-01T12:46:56.529Z,4.70
2023-05-01T12:49:25.201Z,4.20
2023-05-01T12:51:53.478Z,4.47
2023-05-01T12:54:21.886Z,4.43
2023-05-01T12:56:49.639Z,4.30
2023-05-01T12:59:24.065Z,4.20
2023-05-01T13:02:02.354Z,4.13
2023-05-01T13:04:30.635Z,4.17
2023-05-01T13:06:58.835Z,3.90
2023-05-01T13:09:27.793Z,3.80
2023-05-01T13:11:59.012Z,3.60
2023-05-01T13:14:26.837Z,3.67
2023-05-01T13:16:55.688Z,3.30
2023-05-01T13:19:28.929Z,3.27
2023-05-01T13:21:57.550Z,3.10
2023-05-01T13:24:25.544Z,2.40
2023-05-01T13:27:04.801Z,1.70
2023-05-01T13:29:33.500Z,1.77
2023-05-01T13:32:01.644Z,1.67
2023-05-01T13:34:32.988Z,1.80
2023-05-01T13:37:02.102Z,1.77
2023-05-01T13:39:29.954Z,1.60
2023-05-01T13:41:57.655Z,1.70
2023-05-01T13:44:25.382Z,1.67
2023-05-01T13:46:53.086Z,1.70
2023-05-01T13:49:22.916Z,1.80
2023-05-01T13:51:52.672Z,1.87
2023-05-01T13:54:20.591Z,1.83
2023-05-01T13:56:48.308Z,1.80
2023-05-01T13:59:16.161Z,1.80
2023-05-01T14:01:46.668Z,1.60
2023-05-01T14:04:16.946Z,1.80
2023-05-01T14:06:45.139Z,1.70
2023-05-01T14:09:14.591Z,1.60
2023-05-01T14:11:44.601Z,1.60
2023-05-01T14:14:12.908Z,1.40
2023-05-01T14:16:42.101Z,1.40
2023-05-01T14:19:09.831Z,1.40
2023-05-01T14:21:41.279Z,1.30
2023-05-01T14:24:09.479Z,1.20
2023-05-01T14:26:40.190Z,1.20
2023-05-01T14:29:08.915Z,1.17
2023-05-01T14:31:36.724Z,1.10
2023-05-01T14:34:06.339Z,1.20
2023-05-01T14:36:34.106Z,1.13
2023-05-01T14:39:02.509Z,1.10
2023-05-01T14:41:31.571Z,1.10
2023-05-01T14:44:01.026Z,1.00
2023-05-01T14:46:30.350Z,1.00
2023-05-01T14:48:58.560Z,0.90
2023-05-01T14:51:26.299Z,1.00
2023-05-01T14:53:54.258Z,1.00
2023-05-01T14:56:23.018Z,0.90
2023-05-01T14:58:51.080Z,1.00
2023-05-01T15:01:20.379Z,1.00
2023-05-01T15:03:48.286Z,0.90
2023-05-01T15:06:17.177Z,0.90
2023-05-01T15:08:45.643Z,1.00
2023-05-01T15:11:14.058Z,1.00
2023-05-01T15:13:42.742Z,0.90
2023-05-01T15:16:11.070Z,1.00
2023-05-01T15:18:40.400Z,0.90
2023-05-01T15:21:08.128Z,1.00
2023-05-01T15:23:37.124Z,0.90
2023-05-01T15:26:05.008Z,0.90
2023-05-01T15:28:33.054Z,0.90
2023-05-01T15:31:00.850Z,1.00
2023-05-01T15:33:28.659Z,0.90
2023-05-01T15:35:57.751Z,0.90
2023-05-01T15:38:26.179Z,0.90
2023-05-01T15:40:53.941Z,1.00
2023-05-01T15:43:22.419Z,0.90
2023-05-01T15:45:51.369Z,0.90
2023-05-01T15:48:19.238Z,0.90
2023-05-01T15:50:49.019Z,1.00
2023-05-01T15:53:21.661Z,1.00
2023-05-01T15:55:49.487Z,0.80
2023-05-01T15:58:17.294Z,0.70
2023-05-01T16:00:48.204Z,0.90
2023-05-01T16:03:17.501Z,0.80
2023-05-01T16:05:47.082Z,0.90
2023-05-01T16:08:14.870Z,1.00
2023-05-01T16:10:44.045Z,1.00
2023-05-01T16:13:12.141Z,0.80
2023-05-01T16:15:40.106Z,1.00
2023-05-01T16:18:07.920Z,0.90
2023-05-01T16:20:40.533Z,1.00
2023-05-01T16:23:08.690Z,0.97
2023-05-01T16:25:36.505Z,1.00
2023-05-01T16:28:07.649Z,1.00
2023-05-01T16:30:35.633Z,1.00
2023-05-01T16:33:03.669Z,1.10
2023-05-01T16:35:31.832Z,0.90
2023-05-01T16:38:00.579Z,0.90
2023-05-01T16:40:28.271Z,0.90
2023-05-01T16:43:00.762Z,1.10
2023-05-01T16:45:30.178Z,0.90
2023-05-01T16:47:58.563Z,0.93
2023-05-01T16:50:26.326Z,1.10
2023-05-01T16:52:55.478Z,1.20
2023-05-01T16:55:23.207Z,1.40
2023-05-01T16:57:50.937Z,1.40
2023-05-01T17:00:19.674Z,1.40
2023-05-01T17:02:51.825Z,1.53
2023-05-01T17:05:19.660Z,1.60
2023-05-01T17:07:47.485Z,2.00
2023-05-01T17:10:15.410Z,1.90
2023-05-01T17:12:43.283Z,2.30
2023-05-01T17:15:11.510Z,2.00
2023-05-01T17:17:39.406Z,2.03
2023-05-01T17:20:09.758Z,2.10
2023-05-01T17:22:37.656Z,2.10
2023-05-01T17:25:06.167Z,2.00
2023-05-01T17:27:34.186Z,2.00
2023-05-01T17:30:02.484Z,2.10
2023-05-01T17:32:36.966Z,2.10
2023-05-01T17:35:05.727Z,2.00
2023-05-01T17:37:34.981Z,1.90
2023-05-01T17:40:04.064Z,1.70
2023-05-01T17:42:32.026Z,1.90
2023-05-01T17:44:59.898Z,1.83
2023-05-01T17:47:27.816Z,1.80
2023-05-01T17:49:56.013Z,1.70
2023-05-01T17:52:24.172Z,1.80
2023-05-01T17:54:53.451Z,1.90
2023-05-01T17:57:21.301Z,1.90
2023-05-01T17:59:49.252Z,2.00
2023-05-01T18:02:17.268Z,2.00
2023-05-01T18:04:46.026Z,2.20
2023-05-01T18:07:14.085Z,1.90
2023-05-01T18:09:41.937Z,1.97
2023-05-01T18:12:13.905Z,2.33
2023-05-01T18:14:44.040Z,2.17
2023-05-01T18:17:12.412Z,2.50
2023-05-01T18:19:40.576Z,2.60
2023-05-01T18:22:09.268Z,3.10
2023-05-01T18:24:37.366Z,3.07
2023-05-01T18:27:05.267Z,3.20
2023-05-01T18:29:34.824Z,3.20
2023-05-01T18:32:03.765Z,3.40
2023-05-01T18:34:31.881Z,3.23
2023-05-01T18:36:59.880Z,3.70
2023-05-01T18:39:27.965Z,3.60
2023-05-01T18:41:56.308Z,3.53
2023-05-01T18:44:24.701Z,3.50
2023-05-01T18:46:54.192Z,3.57
2023-05-01T18:49:24.072Z,3.80
2023-05-01T18:51:52.336Z,3.60
2023-05-01T18:54:20.383Z,3.13
2023-05-01T18:56:48.334Z,3.20
2023-05-01T18:59:17.019Z,3.10
2023-05-01T19:01:45.659Z,3.40
2023-05-01T19:04:15.080Z,3.37
2023-05-01T19:06:43.025Z,3.07
2023-05-01T19:09:11.113Z,2.97
2023-05-01T19:11:39.054Z,3.07
2023-05-01T19:14:06.882Z,2.97
2023-05-01T19:16:34.963Z,3.23
2023-05-01T19:19:03.129Z,3.20
2023-05-01T19:21:32.983Z,3.10
2023-05-01T19:24:00.996Z,3.53
2023-05-01T19:26:29.295Z,3.43
2023-05-01T19:28:57.138Z,3.10
2023-05-01T19:31:25.355Z,3.20
2023-05-01T19:33:55.172Z,3.20
2023-05-01T19:36:23.256Z,3.30
2023-05-01T19:38:52.818Z,2.93
2023-05-01T19:41:20.729Z,2.50
2023-05-01T19:43:48.745Z,2.70
2023-05-01T19:46:16.738Z,2.70
2023-05-01T19:48:44.841Z,2.80
2023-05-01T19:51:12.829Z,3.10
2023-05-01T19:53:41.195Z,2.90
2023-05-01T19:56:10.556Z,2.80
2023-05-01T19:58:38.966Z,2.70
2023-05-01T20:01:09.288Z,2.97
2023-05-01T20:03:38.561Z,3.40
2023-05-01T20:06:07.578Z,3.30
2023-05-01T20:08:35.704Z,3.60
2023-05-01T20:11:03.900Z,4.10
2023-05-01T20:13:36.927Z,3.30
2023-05-01T20:16:05.212Z,3.83
2023-05-01T20:18:33.130Z,3.27
2023-05-01T20:21:01.327Z,3.50
2023-05-01T20:23:29.483Z,4.53
2023-05-01T20:25:57.320Z,4.60
2023-05-01T20:28:25.899Z,4.93
2023-05-01T20:30:55.553Z,4.73
2023-05-01T20:33:23.712Z,4.77
2023-05-01T20:35:53.055Z,4.70
2023-05-01T20:38:30.250Z,4.60
2023-05-01T20:40:58.183Z,4.40
2023-05-01T20:43:26.821Z,4.60
2023-05-01T20:45:56.409Z,4.40
2023-05-01T20:48:25.224Z,4.40
2023-05-01T20:50:53.794Z,4.50
2023-05-01T20:53:21.549Z,4.60
2023-05-01T20:55:49.937Z,4.53
2023-05-01T20:58:17.677Z,4.30
2023-05-01T21:00:45.389Z,4.50
2023-05-01T21:03:15.840Z,3.97
2023-05-01T21:05:43.680Z,3.90
2023-05-01T21:08:11.362Z,4.20
2023-05-01T21:10:39.137Z,3.77
2023-05-01T21:13:06.846Z,3.90
2023-05-01T21:15:37.649Z,4.10
2023-05-01T21:18:05.441Z,3.87
2023-05-01T21:20:36.091Z,3.60
2023-05-01T21:23:04.561Z,3.70
2023-05-01T21:25:32.746Z,4.17
2023-05-01T21:28:02.139Z,3.77
2023-05-01T21:30:30.938Z,3.60
2023-05-01T21:33:00.847Z,3.70
2023-05-01T21:35:28.864Z,3.80
2023-05-01T21:37:58.263Z,3.77
2023-05-01T21:40:26.349Z,4.20
2023-05-01T21:42:55.044Z,3.97
2023-05-01T21:45:22.953Z,3.40
2023-05-01T21:47:51.965Z,3.30
2023-05-01T21:50:21.560Z,3.40
2023-05-01T21:52:49.863Z,2.80
2023-05-01T21:55:20.561Z,3.00
2023-05-01T21:57:49.885Z,2.70
2023-05-01T22:00:18.085Z,2.90
2023-05-01T22:02:47.145Z,2.83
2023-05-01T22:05:16.541Z,2.70
2023-05-01T22:07:45.138Z,2.60
2023-05-01T22:10:13.696Z,2.50
2023-05-01T22:12:43.579Z,2.60
2023-05-01T22:15:12.218Z,2.40
2023-05-01T22:17:40.539Z,2.60
2023-05-01T22:20:09.138Z,2.20
2023-05-01T22:22:37.432Z,2.60
2023-05-01T22:25:05.597Z,2.47
2023-05-01T22:27:33.501Z,2.27
2023-05-01T22:30:03.173Z,2.30
2023-05-01T22:32:31.219Z,2.47
2023-05-01T22:34:59.192Z,2.50
2023-05-01T22:37:26.960Z,2.50
2023-05-01T22:39:54.691Z,2.60
2023-05-01T22:42:23.143Z,2.60
2023-05-01T22:44:51.051Z,2.40
2023-05-01T22:47:20.189Z,1.83
2023-05-01T22:49:48.010Z,2.10
2023-05-01T22:52:16.218Z,2.17
2023-05-01T22:54:43.924Z,2.30
2023-05-01T22:57:11.682Z,2.27
2023-05-01T22:59:40.625Z,2.30
2023-05-01T23:02:08.602Z,2.30
2023-05-01T23:04:38.058Z,2.30
2023-05-01T23:07:05.800Z,2.30
2023-05-01T23:09:33.537Z,2.13
2023-05-01T23:12:01.982Z,2.50
2023-05-01T23:14:29.716Z,2.00
2023-05-01T23:16:57.458Z,2.40
2023-05-01T23:19:25.777Z,2.37
2023-05-01T23:22:05.290Z,2.27
2023-05-01T23:24:38.290Z,2.30
2023-05-01T23:27:06.700Z,2.00
2023-05-01T23:29:34.401Z,2.27
2023-05-01T23:32:02.236Z,1.60
2023-05-01T23:34:30.010Z,1.80
2023-05-01T23:36:59.141Z,2.30
2023-05-01T23:39:26.860Z,1.80
2023-05-01T23:41:54.579Z,2.30
2023-05-01T23:44:22.327Z,2.40
2023-05-01T23:46:50.053Z,2.37
2023-05-01T23:49:17.799Z,2.00
2023-05-01T23:51:45.513Z,1.80
2023-05-01T23:54:14.693Z,2.40
2023-05-01T23:56:42.432Z,2.50
2023-05-01T23:59:10.143Z,2.30
